KPAE/PAE METAR and TAF weather

Enter ICAO airport designator
Station Type Date Time Source
KPAE METAR 2020/09/19 20:53 UTC NOAA

KPAE 192053Z 20003KT 5SM BR BKN005 BKN011 OVC021 16/14 A3007 RMK AO2 SLP182 60000 T01610144 51004


Station Type Date Time Source
KPAE Decoded METAR 2020/09/19 20:53 UTC NOAA

EVERETT SNOHOMISH COUNTY, WA, United States (KPAE) 47-55N 122-17W 180M
Sep 19, 2020 - 04:53 PM EDT / 2020.09.19 2053 UTC
Wind: from the SSW (200 degrees) at 3 MPH (3 KT):0
Visibility: 5 mile(s):0
Sky conditions: overcast
Weather: mist
Temperature: 61.0 F (16.1 C)
Dew Point: 57.9 F (14.4 C)
Relative Humidity: 89%
Pressure (altimeter): 30.07 in. Hg (1018 hPa)
Pressure tendency: 0.01 inches (0.4 hPa) higher than three hours ago
ob: KPAE 192053Z 20003KT 5SM BR BKN005 BKN011 OVC021 16/14 A3007 RMK AO2 SLP182 60000 T01610144 51004
cycle: 21

Station Type Date Time Source
KPAE TAF 2020/09/19 19:18 UTC NOAA

TAF
AMD KPAE 191915Z 1919/2018 18006KT P6SM VCSH BKN010 OVC020
TEMPO 1919/1921 2SM BR BKN007 OVC015
FM192300 21008KT P6SM VCSH SCT020 BKN035
FM200500 VRB05KT P6SM OVC020
FM201100 16005KT P6SM OVC009

Example: see airport list